createdAt,value
2023-01-13T00:01:40.693Z,9.70
2023-01-13T00:04:12.226Z,10.48
2023-01-13T00:06:41.036Z,6.97
2023-01-13T00:09:10.083Z,8.05
2023-01-13T00:11:38.925Z,8.80
2023-01-13T00:14:07.845Z,10.68
2023-01-13T00:16:36.513Z,9.82
2023-01-13T00:19:05.411Z,9.77
2023-01-13T00:21:34.264Z,7.82
2023-01-13T00:24:03.269Z,8.32
2023-01-13T00:26:34.523Z,10.85
2023-01-13T00:29:04.356Z,9.13
2023-01-13T00:31:33.179Z,9.50
2023-01-13T00:34:02.782Z,7.65
2023-01-13T00:36:32.745Z,9.52
2023-01-13T00:39:01.562Z,7.78
2023-01-13T00:41:50.292Z,7.90
2023-01-13T00:44:19.088Z,7.82
2023-01-13T00:46:47.916Z,6.68
2023-01-13T00:49:16.693Z,8.20
2023-01-13T00:51:45.733Z,9.13
2023-01-13T00:54:14.372Z,9.25
2023-01-13T00:56:43.476Z,9.48
2023-01-13T00:59:14.160Z,8.90
2023-01-13T01:01:43.250Z,8.48
2023-01-13T01:04:12.907Z,7.75
2023-01-13T01:06:41.735Z,9.10
2023-01-13T01:09:16.241Z,9.48
2023-01-13T01:11:45.587Z,10.32
2023-01-13T01:14:16.907Z,9.60
2023-01-13T01:16:45.548Z,10.13
2023-01-13T01:19:14.479Z,9.75
2023-01-13T01:21:43.190Z,10.23
2023-01-13T01:24:12.085Z,9.63
2023-01-13T01:26:42.522Z,10.48
2023-01-13T01:29:16.043Z,10.30
2023-01-13T01:31:44.963Z,10.07
2023-01-13T01:34:13.908Z,9.93
2023-01-13T01:36:42.882Z,10.30
2023-01-13T01:39:12.425Z,9.82
2023-01-13T01:42:01.565Z,8.38
2023-01-13T01:44:59.503Z,11.05
2023-01-13T01:47:31.697Z,9.20
2023-01-13T01:50:02.993Z,9.70
2023-01-13T01:52:37.378Z,7.93
2023-01-13T01:55:19.055Z,9.65
2023-01-13T01:57:55.631Z,10.60
2023-01-13T02:00:24.928Z,10.57
2023-01-13T02:02:54.411Z,9.55
2023-01-13T02:05:23.951Z,9.60
2023-01-13T02:07:55.928Z,8.45
2023-01-13T02:10:28.351Z,10.93
2023-01-13T02:13:04.604Z,12.70
2023-01-13T02:16:02.438Z,14.02
2023-01-13T02:18:41.870Z,16.23
2023-01-13T02:21:49.544Z,15.48
2023-01-13T02:24:42.628Z,14.57
2023-01-13T02:27:32.474Z,13.57
2023-01-13T02:30:44.927Z,13.88
2023-01-13T02:33:50.443Z,12.45
2023-01-13T02:36:30.727Z,13.32
2023-01-13T02:39:03.947Z,12.23
2023-01-13T02:42:00.931Z,13.48
2023-01-13T02:44:34.165Z,12.32
2023-01-13T02:47:02.863Z,13.13
2023-01-13T02:49:40.642Z,13.02
2023-01-13T02:52:18.723Z,11.32
2023-01-13T02:54:55.807Z,10.05
2023-01-13T02:57:28.353Z,9.65
2023-01-13T02:59:57.748Z,8.15
2023-01-13T03:02:30.181Z,9.25
2023-01-13T03:05:00.977Z,9.10
2023-01-13T03:07:57.601Z,8.27
2023-01-13T03:10:38.757Z,7.00
2023-01-13T03:13:20.296Z,7.70
2023-01-13T03:16:19.079Z,9.05
2023-01-13T03:19:17.002Z,8.07
2023-01-13T03:21:52.673Z,8.07
2023-01-13T03:24:37.284Z,7.93
2023-01-13T03:29:42.425Z,8.73
2023-01-13T03:32:41.716Z,11.25
2023-01-13T03:35:32.063Z,15.85
2023-01-13T03:38:07.577Z,7.88
2023-01-13T03:41:00.095Z,8.85
2023-01-13T03:44:01.645Z,8.35
2023-01-13T03:46:40.777Z,10.15
2023-01-13T03:49:13.332Z,10.30
2023-01-13T03:51:48.545Z,13.00
2023-01-13T03:54:20.389Z,12.27
2023-01-13T03:56:55.764Z,12.63
2023-01-13T03:59:32.315Z,12.07
2023-01-13T04:02:10.273Z,7.28
2023-01-13T04:04:58.910Z,10.63
2023-01-13T04:07:46.066Z,9.82
2023-01-13T04:10:19.429Z,10.13
2023-01-13T04:13:10.131Z,9.95
2023-01-13T04:15:41.850Z,10.18
2023-01-13T04:18:18.319Z,10.43
2023-01-13T04:20:49.584Z,10.63
2023-01-13T04:23:20.017Z,11.70
2023-01-13T04:25:49.513Z,11.23
2023-01-13T04:28:19.106Z,15.27
2023-01-13T04:30:48.979Z,12.18
2023-01-13T04:33:20.029Z,11.68
2023-01-13T04:35:49.425Z,11.93
2023-01-13T04:38:20.584Z,11.15
2023-01-13T04:40:49.363Z,13.20
2023-01-13T04:43:18.543Z,13.88
2023-01-13T04:45:47.163Z,13.05
2023-01-13T04:48:15.889Z,13.40
2023-01-13T04:50:44.625Z,10.82
2023-01-13T04:53:13.386Z,10.45
2023-01-13T04:55:42.223Z,11.02
2023-01-13T04:58:12.163Z,8.85
2023-01-13T05:00:40.925Z,6.70
2023-01-13T05:03:12.090Z,8.23
2023-01-13T05:05:40.863Z,6.65
2023-01-13T05:08:09.855Z,7.53
2023-01-13T05:10:38.665Z,7.97
2023-01-13T05:13:25.543Z,8.35
2023-01-13T05:16:12.407Z,8.60
2023-01-13T05:18:41.327Z,7.63
2023-01-13T05:21:29.783Z,8.52
2023-01-13T05:24:19.028Z,7.78
2023-01-13T05:26:47.685Z,8.77
2023-01-13T05:29:16.327Z,10.07
2023-01-13T05:31:45.043Z,9.68
2023-01-13T05:34:13.796Z,8.75
2023-01-13T05:36:42.557Z,10.25
2023-01-13T05:39:11.103Z,9.90
2023-01-13T05:41:58.223Z,11.95
2023-01-13T05:44:27.058Z,10.18
2023-01-13T05:46:55.984Z,10.55
2023-01-13T05:49:24.703Z,11.23
2023-01-13T05:51:53.483Z,8.77
2023-01-13T05:54:21.977Z,10.05
2023-01-13T05:56:50.588Z,8.05
2023-01-13T05:59:19.349Z,10.20
2023-01-13T06:01:47.890Z,9.88
2023-01-13T06:04:16.539Z,10.52
2023-01-13T06:06:46.087Z,12.15
2023-01-13T06:09:14.853Z,14.90
2023-01-13T06:11:44.073Z,13.00
2023-01-13T06:14:12.576Z,21.23
2023-01-13T06:16:41.232Z,9.85
2023-01-13T06:19:13.719Z,10.82
2023-01-13T06:21:42.946Z,10.90
2023-01-13T06:24:11.693Z,11.27
2023-01-13T06:26:41.460Z,9.68
2023-01-13T06:29:13.503Z,12.38
2023-01-13T06:31:42.274Z,7.85
2023-01-13T06:34:14.117Z,9.88
2023-01-13T06:36:50.515Z,11.02
2023-01-13T06:39:23.411Z,11.88
2023-01-13T06:42:13.046Z,12.27
2023-01-13T06:44:41.562Z,10.05
2023-01-13T06:47:10.445Z,9.63
2023-01-13T06:49:38.951Z,11.13
2023-01-13T06:52:07.821Z,9.10
2023-01-13T06:54:36.570Z,13.73
2023-01-13T06:57:05.416Z,11.70
2023-01-13T06:59:37.021Z,11.10
2023-01-13T07:02:05.508Z,9.90
2023-01-13T07:04:34.401Z,9.32
2023-01-13T07:07:05.579Z,8.80
2023-01-13T07:09:34.394Z,8.35
2023-01-13T07:12:02.827Z,9.25
2023-01-13T07:14:49.963Z,8.15
2023-01-13T07:17:25.932Z,8.30
2023-01-13T07:19:54.461Z,8.63
2023-01-13T07:22:23.128Z,8.30
2023-01-13T07:24:55.065Z,8.85
2023-01-13T07:27:23.703Z,8.50
2023-01-13T07:29:52.275Z,10.05
2023-01-13T07:32:21.010Z,8.82
2023-01-13T07:34:50.086Z,6.93
2023-01-13T07:37:18.674Z,8.10
2023-01-13T07:39:47.164Z,6.93
2023-01-13T07:42:34.339Z,6.38
2023-01-13T07:45:03.924Z,6.47
2023-01-13T07:47:32.628Z,6.78
2023-01-13T07:50:01.170Z,6.68
2023-01-13T07:52:32.384Z,6.85
2023-01-13T07:55:01.239Z,7.97
2023-01-13T07:57:29.931Z,6.55
2023-01-13T07:59:58.452Z,6.90
2023-01-13T08:02:30.537Z,6.80
2023-01-13T08:07:32.900Z,6.22
2023-01-13T08:10:02.267Z,6.55
2023-01-13T08:12:51.940Z,6.22
2023-01-13T08:15:36.221Z,7.70
2023-01-13T08:18:13.264Z,7.53
2023-01-13T08:21:04.286Z,14.52
2023-01-13T08:23:34.132Z,13.27
2023-01-13T08:26:05.052Z,9.98
2023-01-13T08:28:33.857Z,7.72
2023-01-13T08:31:04.883Z,8.90
2023-01-13T08:33:34.143Z,9.10
2023-01-13T08:36:07.545Z,8.40
2023-01-13T08:38:37.458Z,10.95
2023-01-13T08:41:13.743Z,8.27
2023-01-13T08:43:42.982Z,7.18
2023-01-13T08:46:12.312Z,6.32
2023-01-13T08:48:41.058Z,6.15
2023-01-13T08:51:12.283Z,6.68
2023-01-13T08:53:40.841Z,7.00
2023-01-13T08:56:12.548Z,7.15
2023-01-13T08:58:41.756Z,7.03
2023-01-13T09:01:16.142Z,6.63
2023-01-13T09:03:44.804Z,3.75
2023-01-13T09:06:13.327Z,6.75
2023-01-13T09:08:45.002Z,7.00
2023-01-13T09:11:48.462Z,7.05
2023-01-13T09:14:25.666Z,7.28
2023-01-13T09:16:54.290Z,6.85
2023-01-13T09:19:23.202Z,5.93
2023-01-13T09:21:53.458Z,7.78
2023-01-13T09:24:22.546Z,7.28
2023-01-13T09:26:51.522Z,7.53
2023-01-13T09:29:20.105Z,7.57
2023-01-13T09:31:48.972Z,6.45
2023-01-13T09:34:39.411Z,5.82
2023-01-13T09:37:09.073Z,5.72
2023-01-13T09:39:38.471Z,5.28
2023-01-13T09:43:01.024Z,5.53
2023-01-13T09:45:33.755Z,5.60
2023-01-13T09:48:24.051Z,6.43
2023-01-13T09:51:04.149Z,6.20
2023-01-13T09:53:41.150Z,6.35
2023-01-13T09:56:12.219Z,7.10
2023-01-13T09:58:40.989Z,7.40
2023-01-13T10:01:16.601Z,7.80
2023-01-13T10:03:46.142Z,6.65
2023-01-13T10:06:24.867Z,6.95
2023-01-13T10:08:54.220Z,6.47
2023-01-13T10:11:44.395Z,6.65
2023-01-13T10:14:18.846Z,6.15
2023-01-13T10:19:50.992Z,5.80
2023-01-13T10:22:48.409Z,4.55
2023-01-13T10:25:26.649Z,5.20
2023-01-13T10:28:04.952Z,5.78
2023-01-13T10:30:40.843Z,5.47
2023-01-13T10:33:26.950Z,5.00
2023-01-13T10:36:13.634Z,5.25
2023-01-13T10:38:48.260Z,6.05
2023-01-13T10:41:17.235Z,5.82
2023-01-13T10:43:59.153Z,6.80
2023-01-13T10:46:28.994Z,6.28
2023-01-13T10:49:00.476Z,5.43
2023-01-13T10:51:31.894Z,6.70
2023-01-13T10:54:13.880Z,7.97
2023-01-13T10:56:45.804Z,7.80
2023-01-13T10:59:29.534Z,8.40
2023-01-13T11:02:19.845Z,8.73
2023-01-13T11:04:56.569Z,9.10
2023-01-13T11:07:32.689Z,7.40
2023-01-13T11:10:07.815Z,7.38
2023-01-13T11:12:48.872Z,7.38
2023-01-13T11:15:23.177Z,6.45
2023-01-13T11:20:44.047Z,6.97
2023-01-13T11:23:35.360Z,5.53
2023-01-13T11:26:13.463Z,5.47
2023-01-13T11:29:18.154Z,5.93
2023-01-13T11:31:53.005Z,4.82
2023-01-13T11:34:42.905Z,5.43
2023-01-13T11:37:21.352Z,5.60
2023-01-13T11:40:08.371Z,6.45
2023-01-13T11:42:43.112Z,9.02
2023-01-13T11:45:42.705Z,6.30
2023-01-13T11:48:21.980Z,5.85
2023-01-13T11:50:57.652Z,5.57
2023-01-13T11:53:45.428Z,5.43
2023-01-13T11:56:22.143Z,6.47
2023-01-13T11:59:22.606Z,5.80
2023-01-13T12:02:08.909Z,6.55
2023-01-13T12:04:59.188Z,7.03
2023-01-13T12:07:57.003Z,9.55
2023-01-13T12:10:49.944Z,11.02
2023-01-13T12:13:29.928Z,12.05
2023-01-13T12:16:16.828Z,12.18
2023-01-13T12:19:13.183Z,12.10
2023-01-13T12:22:08.503Z,10.50
2023-01-13T12:24:49.183Z,8.65
2023-01-13T12:27:47.471Z,9.25
2023-01-13T12:30:28.104Z,7.85
2023-01-13T12:33:08.333Z,7.68
2023-01-13T12:35:52.923Z,7.72
2023-01-13T12:38:38.390Z,6.70
2023-01-13T12:42:08.425Z,5.57
2023-01-13T12:44:37.876Z,5.22
2023-01-13T12:47:39.629Z,6.50
2023-01-13T12:50:23.442Z,6.07
2023-01-13T12:52:54.654Z,6.00
2023-01-13T12:55:37.000Z,5.68
2023-01-13T12:58:06.086Z,5.72
2023-01-13T13:00:41.718Z,6.38
2023-01-13T13:03:15.209Z,6.70
2023-01-13T13:05:58.057Z,6.65
2023-01-13T13:08:48.282Z,6.13
2023-01-13T13:11:40.214Z,6.47
2023-01-13T13:14:15.249Z,6.72
2023-01-13T13:16:52.390Z,7.07
2023-01-13T13:19:23.360Z,6.82
2023-01-13T13:22:13.182Z,6.53
2023-01-13T13:24:43.997Z,6.57
2023-01-13T13:27:18.802Z,6.57
2023-01-13T13:29:53.580Z,6.57
2023-01-13T13:33:01.054Z,6.57
2023-01-13T13:35:55.959Z,6.07
2023-01-13T13:39:02.410Z,5.43
2023-01-13T13:41:50.055Z,8.52
2023-01-13T13:45:02.215Z,14.60
2023-01-13T13:47:38.875Z,23.05
2023-01-13T13:50:14.738Z,35.72
2023-01-13T13:53:06.981Z,48.33
2023-01-13T13:55:38.005Z,51.17
2023-01-13T13:58:14.979Z,45.15
2023-01-13T14:00:49.290Z,45.30
2023-01-13T14:03:33.821Z,34.97
2023-01-13T14:06:10.759Z,13.68
2023-01-13T14:08:46.826Z,8.10
2023-01-13T14:11:29.633Z,7.00
2023-01-13T14:14:07.818Z,6.07
2023-01-13T14:16:39.351Z,5.63
2023-01-13T14:19:46.298Z,8.00
2023-01-13T14:22:17.712Z,6.60
2023-01-13T14:24:50.015Z,8.15
2023-01-13T14:27:20.648Z,9.77
2023-01-13T14:29:50.033Z,9.30
2023-01-13T14:32:32.608Z,7.53
2023-01-13T14:35:02.750Z,5.95
2023-01-13T14:37:35.915Z,5.40
2023-01-13T14:40:06.200Z,4.70
2023-01-13T14:42:36.147Z,5.18
2023-01-13T14:45:05.415Z,4.20
2023-01-13T14:47:34.676Z,4.88
2023-01-13T14:50:22.907Z,5.03
2023-01-13T14:52:56.789Z,5.13
2023-01-13T14:55:29.716Z,6.10
2023-01-13T14:58:24.144Z,4.85
2023-01-13T15:01:13.113Z,4.70
2023-01-13T15:03:42.904Z,4.72
2023-01-13T15:06:26.562Z,4.95
2023-01-13T15:08:55.601Z,4.75
2023-01-13T15:11:29.119Z,4.95
2023-01-13T15:14:05.021Z,4.65
2023-01-13T15:16:35.010Z,4.90
2023-01-13T15:19:05.047Z,5.15
2023-01-13T15:21:35.352Z,5.20
2023-01-13T15:24:05.190Z,5.20
2023-01-13T15:26:35.768Z,5.20
2023-01-13T15:29:05.865Z,5.75
2023-01-13T15:31:34.633Z,4.82
2023-01-13T15:34:03.344Z,5.88
2023-01-13T15:36:34.818Z,4.70
2023-01-13T15:39:04.523Z,5.30
2023-01-13T15:41:51.299Z,5.75
2023-01-13T15:44:38.501Z,5.30
2023-01-13T15:47:14.591Z,5.78
2023-01-13T15:49:47.764Z,5.68
2023-01-13T15:52:28.149Z,6.45
2023-01-13T15:54:56.579Z,6.75
2023-01-13T15:57:29.609Z,6.43
2023-01-13T16:00:10.259Z,7.13
2023-01-13T16:02:39.282Z,7.25
2023-01-13T16:05:10.706Z,8.13
2023-01-13T16:07:39.805Z,7.22
2023-01-13T16:10:17.810Z,7.03
2023-01-13T16:12:49.341Z,5.22
2023-01-13T16:15:23.042Z,7.18
2023-01-13T16:18:00.453Z,6.18
2023-01-13T16:20:29.346Z,5.15
2023-01-13T16:22:57.934Z,5.88
2023-01-13T16:25:28.313Z,5.78
2023-01-13T16:27:56.995Z,5.30
2023-01-13T16:30:38.362Z,5.53
2023-01-13T16:33:08.984Z,6.97
2023-01-13T16:35:43.852Z,6.65
2023-01-13T16:38:26.848Z,7.10
2023-01-13T16:40:58.148Z,4.35
2023-01-13T16:43:28.668Z,3.88
2023-01-13T16:45:57.666Z,4.05
2023-01-13T16:48:26.480Z,4.95
2023-01-13T16:50:55.340Z,3.92
2023-01-13T16:53:24.515Z,3.65
2023-01-13T16:55:53.640Z,3.90
2023-01-13T16:58:22.634Z,4.50
2023-01-13T17:00:53.040Z,3.60
2023-01-13T17:03:22.047Z,4.28
2023-01-13T17:05:50.771Z,4.15
2023-01-13T17:08:19.889Z,3.70
2023-01-13T17:10:48.934Z,4.32
2023-01-13T17:13:17.833Z,4.45
2023-01-13T17:15:47.556Z,4.45
2023-01-13T17:18:16.510Z,3.22
2023-01-13T17:20:45.816Z,3.65
2023-01-13T17:23:15.677Z,3.85
2023-01-13T17:25:44.648Z,3.42
2023-01-13T17:28:13.377Z,5.25
2023-01-13T17:30:45.265Z,4.15
2023-01-13T17:33:16.804Z,4.78
2023-01-13T17:35:46.800Z,3.50
2023-01-13T17:38:15.623Z,4.40
2023-01-13T17:40:46.992Z,3.92
2023-01-13T17:43:15.307Z,3.42
2023-01-13T17:45:46.716Z,4.45
2023-01-13T17:48:15.346Z,4.07
2023-01-13T17:50:50.723Z,3.35
2023-01-13T17:53:21.137Z,3.97
2023-01-13T17:55:56.773Z,3.40
2023-01-13T17:58:28.039Z,3.58
2023-01-13T18:00:56.747Z,3.20
2023-01-13T18:03:25.489Z,3.83
2023-01-13T18:05:54.071Z,3.25
2023-01-13T18:08:24.362Z,2.67
2023-01-13T18:10:53.313Z,3.10
2023-01-13T18:13:21.834Z,3.33
2023-01-13T18:15:50.366Z,3.42
2023-01-13T18:18:18.985Z,3.85
2023-01-13T18:21:06.327Z,2.85
2023-01-13T18:23:53.148Z,2.85
2023-01-13T18:26:39.929Z,3.78
2023-01-13T18:29:08.807Z,3.45
2023-01-13T18:31:37.546Z,2.78
2023-01-13T18:34:08.488Z,2.95
2023-01-13T18:36:37.805Z,2.80
2023-01-13T18:39:07.042Z,3.10
2023-01-13T18:41:54.849Z,3.65
2023-01-13T18:44:23.649Z,4.47
2023-01-13T18:46:52.648Z,3.58
2023-01-13T18:49:21.407Z,2.90
2023-01-13T18:51:50.712Z,3.42
2023-01-13T18:54:20.509Z,2.97
2023-01-13T18:56:50.235Z,3.30
2023-01-13T18:59:19.304Z,2.83
2023-01-13T19:01:48.205Z,3.08
2023-01-13T19:04:18.312Z,3.78
2023-01-13T19:06:50.387Z,3.65
2023-01-13T19:09:21.794Z,4.05
2023-01-13T19:11:51.174Z,3.40
2023-01-13T19:14:38.020Z,3.35
2023-01-13T19:17:13.383Z,3.00
2023-01-13T19:19:46.930Z,3.00
2023-01-13T19:22:23.575Z,2.93
2023-01-13T19:24:52.457Z,3.05
2023-01-13T19:27:22.153Z,2.85
2023-01-13T19:29:52.956Z,3.22
2023-01-13T19:32:22.644Z,3.22
2023-01-13T19:34:51.917Z,4.25
2023-01-13T19:37:21.327Z,3.10
2023-01-13T19:39:50.887Z,3.05
2023-01-13T19:42:37.911Z,3.17
2023-01-13T19:45:25.719Z,2.85
2023-01-13T19:47:55.848Z,2.47
2023-01-13T19:50:25.279Z,2.53
2023-01-13T19:52:54.429Z,3.08
2023-01-13T19:55:23.726Z,3.33
2023-01-13T19:57:52.662Z,3.13
2023-01-13T20:00:22.630Z,2.90
2023-01-13T20:02:53.778Z,2.70
2023-01-13T20:05:26.471Z,3.03
2023-01-13T20:07:55.542Z,2.83
2023-01-13T20:10:25.631Z,3.42
2023-01-13T20:12:54.524Z,2.70
2023-01-13T20:15:23.452Z,2.70
2023-01-13T20:17:52.861Z,2.78
2023-01-13T20:20:22.119Z,2.33
2023-01-13T20:22:51.151Z,2.80
2023-01-13T20:25:21.140Z,3.10
2023-01-13T20:27:50.179Z,2.85
2023-01-13T20:30:18.967Z,2.88
2023-01-13T20:32:47.687Z,2.67
2023-01-13T20:35:16.670Z,3.30
2023-01-13T20:37:45.420Z,2.55
2023-01-13T20:40:17.011Z,2.45
2023-01-13T20:42:45.994Z,2.58
2023-01-13T20:45:22.481Z,2.78
2023-01-13T20:47:51.330Z,3.00
2023-01-13T20:50:20.370Z,2.60
2023-01-13T20:52:49.574Z,2.92
2023-01-13T20:55:18.631Z,2.92
2023-01-13T20:57:49.674Z,12.18
2023-01-13T21:00:18.979Z,3.10
2023-01-13T21:02:47.869Z,4.10
2023-01-13T21:05:16.921Z,2.85
2023-01-13T21:07:46.054Z,2.95
2023-01-13T21:10:14.728Z,3.15
2023-01-13T21:13:01.877Z,3.67
2023-01-13T21:15:30.417Z,3.00
2023-01-13T21:18:17.886Z,3.28
2023-01-13T21:20:46.774Z,2.58
2023-01-13T21:23:15.845Z,2.70
2023-01-13T21:25:44.713Z,2.75
2023-01-13T21:28:14.617Z,3.40
2023-01-13T21:30:44.712Z,3.33
2023-01-13T21:33:15.171Z,3.00
2023-01-13T21:35:43.938Z,3.05
2023-01-13T21:38:13.151Z,3.40
2023-01-13T21:40:41.834Z,2.83
2023-01-13T21:43:32.024Z,3.25
2023-01-13T21:46:19.893Z,2.60
2023-01-13T21:48:48.764Z,2.47
2023-01-13T21:51:17.674Z,2.80
2023-01-13T21:53:46.295Z,2.83
2023-01-13T21:56:15.171Z,3.38
2023-01-13T21:58:43.935Z,3.10
2023-01-13T22:01:12.985Z,3.70
2023-01-13T22:04:00.539Z,3.50
2023-01-13T22:06:29.902Z,3.40
2023-01-13T22:09:02.082Z,2.58
2023-01-13T22:11:31.313Z,2.92
2023-01-13T22:14:12.143Z,2.70
2023-01-13T22:16:50.430Z,3.10
2023-01-13T22:19:19.393Z,3.20
2023-01-13T22:21:48.304Z,2.95
2023-01-13T22:24:17.253Z,3.08
2023-01-13T22:26:46.044Z,3.35
2023-01-13T22:29:14.975Z,2.53
2023-01-13T22:31:44.068Z,2.60
2023-01-13T22:34:13.845Z,2.70
2023-01-13T22:36:42.696Z,2.95
2023-01-13T22:39:14.910Z,3.45
2023-01-13T22:41:43.547Z,3.08
2023-01-13T22:44:12.381Z,3.15
2023-01-13T22:46:41.351Z,3.55
2023-01-13T22:49:11.768Z,3.72
2023-01-13T22:51:40.705Z,3.17
2023-01-13T22:54:10.450Z,2.75
2023-01-13T22:56:39.831Z,3.03
2023-01-13T22:59:10.399Z,3.65
2023-01-13T23:01:39.488Z,3.15
2023-01-13T23:04:08.687Z,3.22
2023-01-13T23:06:37.460Z,2.72
2023-01-13T23:09:06.921Z,3.10
2023-01-13T23:11:36.297Z,2.88
2023-01-13T23:14:08.280Z,2.75
2023-01-13T23:16:40.505Z,3.95
2023-01-13T23:19:11.513Z,3.70
2023-01-13T23:21:40.538Z,3.20
2023-01-13T23:24:09.368Z,3.33
2023-01-13T23:26:38.373Z,3.55
2023-01-13T23:29:09.809Z,3.90
2023-01-13T23:31:39.103Z,3.28
2023-01-13T23:34:08.058Z,3.40
2023-01-13T23:36:41.714Z,2.78
2023-01-13T23:39:10.619Z,3.22
2023-01-13T23:41:39.328Z,3.03
2023-01-13T23:44:08.199Z,3.35
2023-01-13T23:46:37.044Z,2.92
2023-01-13T23:49:06.308Z,3.13
2023-01-13T23:51:35.455Z,3.00
2023-01-13T23:54:04.362Z,3.15
2023-01-13T23:56:33.714Z,3.20
2023-01-13T23:59:02.526Z,3.05
